createdAt,value
2018-12-21T00:02:38.606Z,35.60
2018-12-21T00:05:43.138Z,35.50
2018-12-21T00:32:52.136Z,35.90
2018-12-21T00:36:01.653Z,35.90
2018-12-21T00:39:12.810Z,35.90
2018-12-21T00:43:22.718Z,35.90
2018-12-21T00:46:31.371Z,35.80
2018-12-21T00:49:36.105Z,35.70
2018-12-21T00:52:40.686Z,35.70
2018-12-21T00:55:45.206Z,35.60
2018-12-21T00:58:49.754Z,35.70
2018-12-21T01:01:54.261Z,35.70
2018-12-21T01:04:58.806Z,35.60
2018-12-21T01:08:03.582Z,35.50
2018-12-21T01:11:08.378Z,35.80
2018-12-21T01:14:13.066Z,35.30
2018-12-21T01:17:17.642Z,36.10
2018-12-21T01:20:23.137Z,35.40
2018-12-21T01:23:27.832Z,35.20
2018-12-21T01:26:32.726Z,34.60
2018-12-21T01:29:37.250Z,35.20
2018-12-21T01:32:41.793Z,35.20
2018-12-21T01:35:46.526Z,35.20
2018-12-21T01:38:51.050Z,35.20
2018-12-21T01:41:55.921Z,35.20
2018-12-21T01:45:00.692Z,35.10
2018-12-21T01:48:05.338Z,35.10
2018-12-21T01:51:09.858Z,35.20
2018-12-21T01:54:14.780Z,35.10
2018-12-21T01:57:19.340Z,35.10
2018-12-21T02:00:24.348Z,35.20
2018-12-21T02:03:28.985Z,35.10
2018-12-21T02:06:33.510Z,35.20
2018-12-21T02:09:38.429Z,35.10
2018-12-21T02:12:44.117Z,35.20
2018-12-21T02:15:48.779Z,34.60
2018-12-21T02:18:53.374Z,35.30
2018-12-21T02:21:58.141Z,35.30
2018-12-21T02:25:03.011Z,35.40
2018-12-21T02:28:07.619Z,35.30
2018-12-21T02:31:12.194Z,35.50
2018-12-21T02:34:16.799Z,35.50
2018-12-21T02:37:21.538Z,35.50
2018-12-21T02:40:26.090Z,35.50
2018-12-21T02:43:30.610Z,35.50
2018-12-21T02:46:35.190Z,35.50
2018-12-21T02:49:39.746Z,35.50
2018-12-21T02:52:44.313Z,35.50
2018-12-21T02:55:48.907Z,35.60
2018-12-21T02:58:53.688Z,35.50
2018-12-21T03:01:58.267Z,35.50
2018-12-21T03:05:02.823Z,35.50
2018-12-21T03:08:07.423Z,35.50
2018-12-21T03:11:12.075Z,35.50
2018-12-21T03:14:16.582Z,35.50
2018-12-21T03:17:21.359Z,35.50
2018-12-21T03:20:26.069Z,35.60
2018-12-21T03:23:30.724Z,35.60
2018-12-21T03:26:35.474Z,35.50
2018-12-21T03:29:40.181Z,35.60
2018-12-21T03:32:44.871Z,35.50
2018-12-21T03:35:49.656Z,35.60
2018-12-21T03:38:54.219Z,35.70
2018-12-21T03:41:58.775Z,35.80
2018-12-21T03:45:03.490Z,35.80
2018-12-21T03:48:08.460Z,35.80
2018-12-21T03:51:13.394Z,35.90
2018-12-21T03:54:18.134Z,36.90
2018-12-21T03:57:22.711Z,36.60
2018-12-21T04:00:27.339Z,36.60
2018-12-21T04:03:31.874Z,36.50
2018-12-21T04:06:36.458Z,36.50
2018-12-21T04:09:41.025Z,36.50
2018-12-21T04:12:45.873Z,36.50
2018-12-21T04:15:50.383Z,36.60
2018-12-21T04:18:54.931Z,36.60
2018-12-21T04:21:59.523Z,36.50
2018-12-21T04:25:04.214Z,36.50
2018-12-21T04:28:08.781Z,37.10
2018-12-21T04:31:13.342Z,36.50
2018-12-21T04:34:17.847Z,36.60
2018-12-21T04:37:22.639Z,36.60
2018-12-21T04:40:27.192Z,36.60
2018-12-21T04:43:31.750Z,36.60
2018-12-21T04:46:36.248Z,36.60
2018-12-21T04:49:41.001Z,36.60
2018-12-21T04:52:45.524Z,36.70
2018-12-21T04:55:50.059Z,36.60
2018-12-21T04:58:54.557Z,36.60
2018-12-21T05:01:59.359Z,36.70
2018-12-21T05:05:04.214Z,36.80
2018-12-21T05:08:08.777Z,36.70
2018-12-21T05:11:13.283Z,36.70
2018-12-21T05:14:17.932Z,36.80
2018-12-21T05:17:22.426Z,36.90
2018-12-21T05:20:27.058Z,36.90
2018-12-21T05:23:31.605Z,37.60
2018-12-21T05:26:36.367Z,37.00
2018-12-21T05:29:40.951Z,36.90
2018-12-21T05:32:45.506Z,37.00
2018-12-21T05:35:50.016Z,37.10
2018-12-21T05:38:54.605Z,37.20
2018-12-21T05:41:59.173Z,37.10
2018-12-21T05:45:03.709Z,37.20
2018-12-21T05:48:08.208Z,37.20
2018-12-21T05:51:12.745Z,37.20
2018-12-21T05:54:17.986Z,37.20
2018-12-21T05:57:22.498Z,37.20
2018-12-21T06:00:27.030Z,37.20
2018-12-21T06:03:31.566Z,37.20
2018-12-21T06:06:37.903Z,37.30
2018-12-21T06:09:42.449Z,37.20
2018-12-21T06:12:47.081Z,37.20
2018-12-21T06:15:51.606Z,37.20
2018-12-21T06:18:56.133Z,37.20
2018-12-21T06:22:00.674Z,37.20
2018-12-21T06:25:05.475Z,37.30
2018-12-21T06:28:10.233Z,37.20
2018-12-21T06:31:14.745Z,37.30
2018-12-21T06:34:19.277Z,37.30
2018-12-21T06:37:23.802Z,38.00
2018-12-21T06:40:28.331Z,37.10
2018-12-21T06:43:32.877Z,37.10
2018-12-21T06:46:37.397Z,37.10
2018-12-21T06:49:41.925Z,37.20
2018-12-21T06:52:46.529Z,37.90
2018-12-21T06:55:51.074Z,37.30
2018-12-21T06:58:55.605Z,37.70
2018-12-21T07:02:00.119Z,37.40
2018-12-21T07:05:05.053Z,37.30
2018-12-21T07:08:09.569Z,37.50
2018-12-21T07:11:14.105Z,37.40
2018-12-21T07:14:18.662Z,37.50
2018-12-21T07:17:23.271Z,37.60
2018-12-21T07:20:27.787Z,37.90
2018-12-21T07:23:32.310Z,61.60
2018-12-21T07:26:36.853Z,60.60
2018-12-21T07:29:41.785Z,59.20
2018-12-21T07:32:46.323Z,55.00
2018-12-21T07:35:50.829Z,52.00
2018-12-21T07:38:55.553Z,49.90
2018-12-21T07:42:00.123Z,48.60
2018-12-21T07:45:05.134Z,48.40
2018-12-21T07:48:09.643Z,47.20
2018-12-21T07:51:14.294Z,46.70
2018-12-21T07:54:18.801Z,46.20
2018-12-21T07:57:23.346Z,45.70
2018-12-21T08:00:27.865Z,45.20
2018-12-21T08:03:32.382Z,45.20
2018-12-21T08:06:37.510Z,45.10
2018-12-21T08:09:42.057Z,45.20
2018-12-21T08:12:46.574Z,44.30
2018-12-21T08:15:51.817Z,44.40
2018-12-21T08:18:57.593Z,44.20
2018-12-21T08:22:02.116Z,43.50
2018-12-21T08:25:07.399Z,42.90
2018-12-21T08:28:11.969Z,42.90
2018-12-21T08:31:16.670Z,43.00
2018-12-21T08:34:22.374Z,43.30
2018-12-21T08:37:26.897Z,43.20
2018-12-21T08:40:31.403Z,43.20
2018-12-21T08:43:35.938Z,43.40
2018-12-21T08:46:40.477Z,43.30
2018-12-21T08:49:45.008Z,43.30
2018-12-21T08:52:49.511Z,43.00
2018-12-21T08:55:54.057Z,43.00
2018-12-21T08:58:58.576Z,42.90
2018-12-21T09:02:03.210Z,42.60
2018-12-21T09:05:08.434Z,42.50
2018-12-21T09:08:12.962Z,42.50
2018-12-21T09:11:17.710Z,42.40
2018-12-21T09:14:22.333Z,42.50
2018-12-21T09:17:26.918Z,42.20
2018-12-21T09:20:31.593Z,42.30
2018-12-21T09:23:36.169Z,42.20
2018-12-21T09:26:40.757Z,42.00
2018-12-21T09:29:45.270Z,42.60
2018-12-21T09:32:49.806Z,43.20
2018-12-21T09:35:54.437Z,42.90
2018-12-21T09:38:58.941Z,42.40
2018-12-21T09:42:03.482Z,42.30
2018-12-21T09:45:09.236Z,42.30
2018-12-21T09:48:13.761Z,43.00
2018-12-21T09:51:18.300Z,42.30
2018-12-21T09:54:22.823Z,42.40
2018-12-21T09:57:27.353Z,42.30
2018-12-21T10:00:31.849Z,42.30
2018-12-21T10:03:36.566Z,42.40
2018-12-21T10:06:41.075Z,42.30
2018-12-21T10:09:45.605Z,42.30
2018-12-21T10:12:53.343Z,42.00
2018-12-21T10:15:57.018Z,41.80
2018-12-21T10:19:01.557Z,41.60
2018-12-21T10:22:06.081Z,38.30
2018-12-21T10:25:10.606Z,37.90
2018-12-21T10:28:15.321Z,37.90
2018-12-21T10:31:20.929Z,39.00
2018-12-21T10:34:25.520Z,39.60
2018-12-21T10:37:30.319Z,39.70
2018-12-21T10:40:34.987Z,39.90
2018-12-21T10:43:40.195Z,39.90
2018-12-21T10:46:44.758Z,40.70
2018-12-21T10:49:49.311Z,40.70
2018-12-21T10:52:53.805Z,40.10
2018-12-21T10:55:58.418Z,40.10
2018-12-21T10:59:03.162Z,40.10
2018-12-21T11:02:07.742Z,40.10
2018-12-21T11:05:12.398Z,40.10
2018-12-21T11:08:16.982Z,40.10
2018-12-21T11:11:21.554Z,40.10
2018-12-21T11:14:26.460Z,41.00
2018-12-21T11:17:31.031Z,41.20
2018-12-21T11:20:35.638Z,41.00
2018-12-21T11:23:40.213Z,41.10
2018-12-21T11:26:44.846Z,40.90
2018-12-21T11:29:49.759Z,40.90
2018-12-21T11:32:54.312Z,40.90
2018-12-21T11:35:58.894Z,40.80
2018-12-21T11:39:04.059Z,40.80
2018-12-21T11:42:08.558Z,40.90
2018-12-21T11:45:13.159Z,40.70
2018-12-21T11:48:17.718Z,40.70
2018-12-21T11:51:22.295Z,40.60
2018-12-21T11:54:28.050Z,40.70
2018-12-21T11:57:32.778Z,40.60
2018-12-21T12:00:37.734Z,40.60
2018-12-21T12:03:42.435Z,40.50
2018-12-21T12:06:50.138Z,40.50
2018-12-21T12:09:54.860Z,40.50
2018-12-21T12:12:59.355Z,40.40
2018-12-21T12:16:03.909Z,40.40
2018-12-21T12:19:08.402Z,40.40
2018-12-21T12:22:13.497Z,40.30
2018-12-21T12:25:18.426Z,40.40
2018-12-21T12:28:23.372Z,40.30
2018-12-21T12:31:28.304Z,40.20
2018-12-21T12:34:33.220Z,40.10
2018-12-21T12:37:37.725Z,40.20
2018-12-21T12:40:42.249Z,40.10
2018-12-21T12:43:46.765Z,40.10
2018-12-21T12:46:51.399Z,40.10
2018-12-21T12:49:55.922Z,40.80
2018-12-21T12:53:00.451Z,40.10
2018-12-21T12:56:05.407Z,40.20
2018-12-21T12:59:10.426Z,40.30
2018-12-21T13:02:14.946Z,40.20
2018-12-21T13:05:19.585Z,40.20
2018-12-21T13:08:24.102Z,40.10
2018-12-21T13:11:29.516Z,40.00
2018-12-21T13:14:34.669Z,40.00
2018-12-21T13:17:39.741Z,40.00
2018-12-21T13:20:44.280Z,40.00
2018-12-21T13:23:48.791Z,39.90
2018-12-21T13:26:53.410Z,39.90
2018-12-21T13:29:57.944Z,40.00
2018-12-21T13:33:02.478Z,40.00
2018-12-21T13:36:07.832Z,39.90
2018-12-21T13:39:12.362Z,40.00
2018-12-21T13:42:17.359Z,40.00
2018-12-21T13:45:22.060Z,40.00
2018-12-21T13:48:26.915Z,40.00
2018-12-21T13:51:31.487Z,40.00
2018-12-21T13:54:36.221Z,40.10
2018-12-21T13:57:40.762Z,40.00
2018-12-21T14:00:45.543Z,40.00
2018-12-21T14:03:50.102Z,39.80
2018-12-21T14:06:55.043Z,39.60
2018-12-21T14:09:59.650Z,39.80
2018-12-21T14:13:04.366Z,40.00
2018-12-21T14:16:08.905Z,40.00
2018-12-21T14:19:13.758Z,39.90
2018-12-21T14:22:18.374Z,39.90
2018-12-21T14:25:28.862Z,39.70
2018-12-21T14:28:29.488Z,39.80
2018-12-21T14:31:34.160Z,39.20
2018-12-21T14:34:38.726Z,39.60
2018-12-21T14:37:43.314Z,39.60
2018-12-21T14:40:47.886Z,39.70
2018-12-21T14:43:52.978Z,39.70
2018-12-21T14:46:58.484Z,39.70
2018-12-21T14:50:10.386Z,39.60
2018-12-21T14:53:14.897Z,39.90
2018-12-21T14:56:19.546Z,40.20
2018-12-21T14:59:24.155Z,40.50
2018-12-21T15:02:28.731Z,40.80
2018-12-21T15:05:33.310Z,41.00
2018-12-21T15:08:38.244Z,40.80
2018-12-21T15:11:42.766Z,40.90
2018-12-21T15:14:47.853Z,40.90
2018-12-21T15:17:52.438Z,40.50
2018-12-21T15:20:57.134Z,40.20
2018-12-21T15:24:02.517Z,39.90
2018-12-21T15:27:07.166Z,39.50
2018-12-21T15:30:12.198Z,39.10
2018-12-21T15:33:16.763Z,38.70
2018-12-21T15:36:21.357Z,38.20
2018-12-21T15:39:26.190Z,38.10
2018-12-21T15:42:31.056Z,37.70
2018-12-21T15:45:35.634Z,37.50
2018-12-21T15:48:40.320Z,36.60
2018-12-21T15:51:45.242Z,36.50
2018-12-21T15:54:49.950Z,36.80
2018-12-21T15:57:54.454Z,37.10
2018-12-21T16:00:58.993Z,36.60
2018-12-21T16:04:03.633Z,36.90
2018-12-21T16:07:08.185Z,38.60
2018-12-21T16:10:14.489Z,45.60
2018-12-21T16:13:20.098Z,45.20
2018-12-21T16:16:24.614Z,46.30
2018-12-21T16:19:29.181Z,44.90
2018-12-21T16:22:42.089Z,46.40
2018-12-21T16:25:40.456Z,42.10
2018-12-21T16:28:44.981Z,42.60
2018-12-21T16:31:49.489Z,43.60
2018-12-21T16:34:54.033Z,44.30
2018-12-21T16:37:58.544Z,44.60
2018-12-21T16:41:03.169Z,44.60
2018-12-21T16:44:07.710Z,44.50
2018-12-21T16:47:12.242Z,44.40
2018-12-21T16:50:16.774Z,44.10
2018-12-21T16:53:21.296Z,43.90
2018-12-21T16:56:25.823Z,43.80
2018-12-21T16:59:30.333Z,43.50
2018-12-21T17:02:34.874Z,43.40
2018-12-21T17:05:39.500Z,43.40
2018-12-21T17:08:44.026Z,43.30
2018-12-21T17:11:48.554Z,43.20
2018-12-21T17:14:53.082Z,43.10
2018-12-21T17:17:57.604Z,42.70
2018-12-21T17:21:02.133Z,42.60
2018-12-21T17:24:06.749Z,42.60
2018-12-21T17:27:11.274Z,42.50
2018-12-21T17:30:15.818Z,42.30
2018-12-21T17:33:20.343Z,42.20
2018-12-21T17:36:24.866Z,42.00
2018-12-21T17:39:29.394Z,42.00
2018-12-21T17:42:33.917Z,41.90
2018-12-21T17:45:38.534Z,41.90
2018-12-21T17:48:43.069Z,41.90
2018-12-21T17:51:47.614Z,41.90
2018-12-21T17:54:52.115Z,41.90
2018-12-21T17:57:56.638Z,41.80
2018-12-21T18:01:01.190Z,41.90
2018-12-21T18:04:18.653Z,41.30
2018-12-21T18:07:23.244Z,41.70
2018-12-21T18:10:28.083Z,41.70
2018-12-21T18:13:32.597Z,41.50
2018-12-21T18:16:37.142Z,41.50
2018-12-21T18:19:41.636Z,41.40
2018-12-21T18:22:46.209Z,41.30
2018-12-21T18:25:50.805Z,41.30
2018-12-21T18:28:55.354Z,41.10
2018-12-21T18:32:04.103Z,41.00
2018-12-21T18:35:14.590Z,41.10
2018-12-21T18:38:21.439Z,40.90
2018-12-21T18:41:26.162Z,40.90
2018-12-21T18:44:30.663Z,40.80
2018-12-21T18:47:35.221Z,40.70
2018-12-21T18:50:39.902Z,40.70
2018-12-21T18:53:44.554Z,40.80
2018-12-21T18:56:58.001Z,41.40
2018-12-21T19:00:02.553Z,40.70
2018-12-21T19:03:07.137Z,40.70
2018-12-21T19:06:11.786Z,40.70
2018-12-21T19:09:16.380Z,40.60
2018-12-21T19:12:20.938Z,40.50
2018-12-21T19:15:25.434Z,40.50
2018-12-21T19:18:29.989Z,40.50
2018-12-21T19:21:34.499Z,40.50
2018-12-21T19:24:39.053Z,40.40
2018-12-21T19:27:43.654Z,40.50
2018-12-21T19:30:48.312Z,40.40
2018-12-21T19:33:52.895Z,40.30
2018-12-21T19:36:57.474Z,40.30
2018-12-21T19:40:02.077Z,40.30
2018-12-21T19:43:06.826Z,40.20
2018-12-21T19:46:11.411Z,40.20
2018-12-21T19:49:16.070Z,40.10
2018-12-21T19:52:20.562Z,40.10
2018-12-21T19:56:49.590Z,40.10
2018-12-21T19:59:54.093Z,40.20
2018-12-21T20:02:58.845Z,40.30
2018-12-21T20:06:03.513Z,40.20
2018-12-21T20:09:08.483Z,40.70
2018-12-21T20:12:14.048Z,41.00
2018-12-21T20:15:19.304Z,41.70
2018-12-21T20:18:23.938Z,42.80
2018-12-21T20:21:28.215Z,44.60
2018-12-21T20:24:36.124Z,48.00
2018-12-21T20:27:41.331Z,51.70
2018-12-21T20:30:46.293Z,51.50
2018-12-21T20:33:50.862Z,51.40
2018-12-21T20:36:55.382Z,51.90
2018-12-21T20:39:59.921Z,52.60
2018-12-21T20:43:05.074Z,52.80
2018-12-21T20:46:09.773Z,53.30
2018-12-21T20:49:14.421Z,53.80
2018-12-21T20:52:19.089Z,54.10
2018-12-21T20:55:23.797Z,54.80
2018-12-21T20:58:51.016Z,54.70
2018-12-21T21:01:55.808Z,54.70
2018-12-21T21:05:00.597Z,54.70
2018-12-21T21:08:07.610Z,54.60
2018-12-21T21:11:12.333Z,54.60
2018-12-21T21:14:18.874Z,54.10
2018-12-21T21:17:23.522Z,54.60
2018-12-21T21:20:28.307Z,55.30
2018-12-21T21:23:33.210Z,55.70
2018-12-21T21:26:37.977Z,55.80
2018-12-21T21:29:43.223Z,55.60
2018-12-21T21:32:48.446Z,55.60
2018-12-21T21:35:52.908Z,55.40
2018-12-21T21:38:57.910Z,55.30
2018-12-21T21:42:02.769Z,55.90
2018-12-21T21:45:08.708Z,55.60
2018-12-21T21:48:13.540Z,55.60
2018-12-21T21:51:18.766Z,55.40
2018-12-21T21:54:23.405Z,55.20
2018-12-21T21:57:28.209Z,55.10
2018-12-21T22:00:32.834Z,55.00
2018-12-21T22:03:37.764Z,54.90
2018-12-21T22:06:42.550Z,55.00
2018-12-21T22:09:47.167Z,55.60
2018-12-21T22:12:52.301Z,56.60
2018-12-21T22:15:57.162Z,57.80
2018-12-21T22:19:01.842Z,58.30
2018-12-21T22:22:07.694Z,57.20
2018-12-21T22:25:12.601Z,56.10
2018-12-21T22:28:17.954Z,55.70
2018-12-21T22:31:22.723Z,55.50
2018-12-21T22:34:27.442Z,55.50
2018-12-21T22:37:31.981Z,55.60
2018-12-21T22:40:37.014Z,55.80
2018-12-21T22:43:41.867Z,55.80
2018-12-21T22:46:46.582Z,56.00
2018-12-21T22:49:51.369Z,56.00
2018-12-21T22:52:56.394Z,56.30
2018-12-21T22:56:01.434Z,56.10
2018-12-21T22:59:06.376Z,55.90
2018-12-21T23:02:11.338Z,55.90
2018-12-21T23:05:16.117Z,56.20
2018-12-21T23:08:21.330Z,56.10
2018-12-21T23:11:25.998Z,56.50
2018-12-21T23:14:30.865Z,56.40
2018-12-21T23:17:36.007Z,56.30
2018-12-21T23:20:40.699Z,56.30
2018-12-21T23:23:45.647Z,56.90
2018-12-21T23:26:50.681Z,56.70
2018-12-21T23:29:55.502Z,56.80
2018-12-21T23:33:00.586Z,57.00
2018-12-21T23:36:05.471Z,56.90
2018-12-21T23:39:10.366Z,57.20
2018-12-21T23:42:15.162Z,57.40
2018-12-21T23:45:19.739Z,57.90
2018-12-21T23:48:24.269Z,57.90
2018-12-21T23:51:30.835Z,59.50
2018-12-21T23:54:36.108Z,57.90
2018-12-21T23:57:40.932Z,58.60
